sensor_id;sensor_type;location;lat;lon;timestamp;pressure;altitude;pressure_sealevel;temperature;humidity
49877;BME280;35771;48.978;9.294;2022-11-15T07:26:32;98599.56;;;4.79;100.00
49877;BME280;35771;48.978;9.294;2022-11-15T07:29:00;98597.91;;;4.94;100.00
49877;BME280;35771;48.978;9.294;2022-11-15T07:31:26;98595.06;;;5.04;100.00
49877;BME280;35771;48.978;9.294;2022-11-15T07:33:53;98601.19;;;5.14;100.00
49877;BME280;35771;48.978;9.294;2022-11-15T07:36:19;98608.66;;;5.37;100.00
49877;BME280;35771;48.978;9.294;2022-11-15T07:38:46;98611.03;;;5.48;100.00
49877;BME280;35771;48.978;9.294;2022-11-15T07:41:12;98608.69;;;5.62;100.00
49877;BME280;35771;48.978;9.294;2022-11-15T07:43:40;98602.63;;;5.68;100.00
49877;BME280;35771;48.978;9.294;2022-11-15T07:46:08;98586.28;;;5.70;100.00
49877;BME280;35771;48.978;9.294;2022-11-15T07:48:35;98591.53;;;5.88;100.00
49877;BME280;35771;48.978;9.294;2022-11-15T07:51:02;98592.84;;;5.83;100.00
49877;BME280;35771;48.978;9.294;2022-11-15T07:53:28;98594.94;;;5.98;100.00
49877;BME280;35771;48.978;9.294;2022-11-15T07:55:55;98585.47;;;6.02;100.00
49877;BME280;35771;48.978;9.294;2022-11-15T07:58:21;98583.44;;;6.04;100.00
49877;BME280;35771;48.978;9.294;2022-11-15T08:00:49;98610.41;;;6.29;100.00
49877;BME280;35771;48.978;9.294;2022-11-15T08:03:16;98601.78;;;6.33;100.00
49877;BME280;35771;48.978;9.294;2022-11-15T08:05:43;98582.41;;;6.30;100.00
49877;BME280;35771;48.978;9.294;2022-11-15T08:08:16;98590.44;;;6.54;100.00
49877;BME280;35771;48.978;9.294;2022-11-15T08:10:42;98579.28;;;6.66;100.00
49877;BME280;35771;48.978;9.294;2022-11-15T08:13:10;98572.09;;;6.81;100.00
49877;BME280;35771;48.978;9.294;2022-11-15T08:15:37;98567.63;;;6.97;100.00
49877;BME280;35771;48.978;9.294;2022-11-15T08:18:08;98573.13;;;7.20;100.00
49877;BME280;35771;48.978;9.294;2022-11-15T08:20:35;98553.16;;;7.21;100.00
49877;BME280;35771;48.978;9.294;2022-11-15T08:23:03;98573.19;;;7.35;100.00
49877;BME280;35771;48.978;9.294;2022-11-15T08:25:31;98577.63;;;7.51;100.00
49877;BME280;35771;48.978;9.294;2022-11-15T08:28:00;98553.72;;;7.39;100.00
49877;BME280;35771;48.978;9.294;2022-11-15T08:30:27;98559.72;;;7.50;100.00
49877;BME280;35771;48.978;9.294;2022-11-15T08:32:56;98568.25;;;7.61;100.00
49877;BME280;35771;48.978;9.294;2022-11-15T08:35:24;98540.63;;;7.51;100.00
49877;BME280;35771;48.978;9.294;2022-11-15T08:37:52;98554.19;;;7.66;100.00
49877;BME280;35771;48.978;9.294;2022-11-15T08:40:19;98554.00;;;7.68;100.00
49877;BME280;35771;48.978;9.294;2022-11-15T08:42:46;98549.31;;;7.85;100.00
49877;BME280;35771;48.978;9.294;2022-11-15T08:45:13;98546.53;;;7.93;100.00
49877;BME280;35771;48.978;9.294;2022-11-15T08:47:39;98532.34;;;7.91;100.00
49877;BME280;35771;48.978;9.294;2022-11-15T08:50:07;98532.03;;;7.86;100.00
49877;BME280;35771;48.978;9.294;2022-11-15T08:52:35;98525.63;;;7.87;100.00
49877;BME280;35771;48.978;9.294;2022-11-15T08:55:02;98530.66;;;7.90;100.00
49877;BME280;35771;48.978;9.294;2022-11-15T08:57:28;98544.13;;;7.98;100.00
49877;BME280;35771;48.978;9.294;2022-11-15T08:59:56;98532.75;;;8.03;100.00
49877;BME280;35771;48.978;9.294;2022-11-15T09:02:23;98520.13;;;8.10;100.00
49877;BME280;35771;48.978;9.294;2022-11-15T09:04:49;98531.63;;;8.12;100.00
49877;BME280;35771;48.978;9.294;2022-11-15T09:07:16;98522.31;;;8.14;100.00
49877;BME280;35771;48.978;9.294;2022-11-15T09:09:44;98534.06;;;8.37;100.00
49877;BME280;35771;48.978;9.294;2022-11-15T09:12:10;98522.16;;;8.31;100.00
49877;BME280;35771;48.978;9.294;2022-11-15T09:14:37;98505.06;;;8.45;100.00
49877;BME280;35771;48.978;9.294;2022-11-15T09:17:06;98509.66;;;8.60;100.00
49877;BME280;35771;48.978;9.294;2022-11-15T09:19:33;98514.88;;;8.76;100.00
49877;BME280;35771;48.978;9.294;2022-11-15T09:22:00;98516.31;;;8.94;100.00
49877;BME280;35771;48.978;9.294;2022-11-15T09:24:26;98519.13;;;9.00;100.00
49877;BME280;35771;48.978;9.294;2022-11-15T09:26:54;98511.44;;;9.04;100.00
49877;BME280;35771;48.978;9.294;2022-11-15T09:29:21;98506.06;;;9.11;100.00
49877;BME280;35771;48.978;9.294;2022-11-15T09:31:47;98509.78;;;9.25;100.00
49877;BME280;35771;48.978;9.294;2022-11-15T09:34:14;98510.66;;;9.32;100.00
49877;BME280;35771;48.978;9.294;2022-11-15T09:36:41;98498.59;;;9.34;100.00
49877;BME280;35771;48.978;9.294;2022-11-15T09:39:07;98501.00;;;9.44;100.00
49877;BME280;35771;48.978;9.294;2022-11-15T09:41:45;98517.41;;;9.57;100.00
49877;BME280;35771;48.978;9.294;2022-11-15T09:47:46;98514.88;;;9.78;100.00
49877;BME280;35771;48.978;9.294;2022-11-15T09:50:18;98506.53;;;9.79;100.00
49877;BME280;35771;48.978;9.294;2022-11-15T09:52:46;98503.03;;;9.85;100.00
49877;BME280;35771;48.978;9.294;2022-11-15T09:55:14;98498.25;;;9.87;100.00
49877;BME280;35771;48.978;9.294;2022-11-15T09:57:50;98495.81;;;9.99;100.00
49877;BME280;35771;48.978;9.294;2022-11-15T10:00:21;98500.63;;;10.25;100.00
49877;BME280;35771;48.978;9.294;2022-11-15T10:02:53;98513.31;;;10.47;100.00
49877;BME280;35771;48.978;9.294;2022-11-15T10:05:25;98520.69;;;10.59;100.00
49877;BME280;35771;48.978;9.294;2022-11-15T10:07:59;98490.16;;;10.57;100.00
49877;BME280;35771;48.978;9.294;2022-11-15T10:10:34;98490.63;;;10.68;100.00
49877;BME280;35771;48.978;9.294;2022-11-15T10:13:03;98485.63;;;10.71;100.00
49877;BME280;35771;48.978;9.294;2022-11-15T10:15:31;98486.31;;;10.87;100.00
49877;BME280;35771;48.978;9.294;2022-11-15T10:18:13;98489.69;;;10.89;100.00
49877;BME280;35771;48.978;9.294;2022-11-15T10:20:47;98483.22;;;10.96;100.00
49877;BME280;35771;48.978;9.294;2022-11-15T10:23:16;98460.44;;;11.04;100.00
49877;BME280;35771;48.978;9.294;2022-11-15T10:25:43;98458.78;;;11.10;100.00
49877;BME280;35771;48.978;9.294;2022-11-15T10:28:14;98464.66;;;11.27;100.00
49877;BME280;35771;48.978;9.294;2022-11-15T10:30:44;98453.38;;;11.30;100.00
49877;BME280;35771;48.978;9.294;2022-11-15T10:33:17;98458.84;;;11.43;100.00
49877;BME280;35771;48.978;9.294;2022-11-15T10:35:45;98461.78;;;11.55;100.00
49877;BME280;35771;48.978;9.294;2022-11-15T10:38:12;98459.03;;;11.62;100.00
49877;BME280;35771;48.978;9.294;2022-11-15T10:40:39;98446.28;;;11.69;100.00
49877;BME280;35771;48.978;9.294;2022-11-15T10:43:16;98437.06;;;11.63;100.00
49877;BME280;35771;48.978;9.294;2022-11-15T10:45:45;98457.38;;;11.74;100.00
49877;BME280;35771;48.978;9.294;2022-11-15T10:48:25;98442.91;;;11.74;100.00
49877;BME280;35771;48.978;9.294;2022-11-15T10:50:52;98441.44;;;11.71;100.00
49877;BME280;35771;48.978;9.294;2022-11-15T10:53:23;98427.88;;;11.58;100.00
49877;BME280;35771;48.978;9.294;2022-11-15T10:55:54;98418.63;;;11.59;100.00
49877;BME280;35771;48.978;9.294;2022-11-15T10:58:31;98443.13;;;11.72;100.00
49877;BME280;35771;48.978;9.294;2022-11-15T11:01:11;98418.00;;;11.70;100.00
49877;BME280;35771;48.978;9.294;2022-11-15T11:03:39;98424.72;;;11.67;100.00
49877;BME280;35771;48.978;9.294;2022-11-15T11:06:10;98430.78;;;11.63;100.00
49877;BME280;35771;48.978;9.294;2022-11-15T11:08:37;98431.84;;;11.68;100.00
49877;BME280;35771;48.978;9.294;2022-11-15T11:11:05;98420.53;;;11.58;100.00
49877;BME280;35771;48.978;9.294;2022-11-15T11:13:33;98414.84;;;11.53;100.00
49877;BME280;35771;48.978;9.294;2022-11-15T11:16:16;98415.50;;;11.62;100.00
49877;BME280;35771;48.978;9.294;2022-11-15T11:18:51;98403.78;;;11.61;100.00
49877;BME280;35771;48.978;9.294;2022-11-15T11:21:26;98400.66;;;11.58;100.00
49877;BME280;35771;48.978;9.294;2022-11-15T11:24:01;98396.03;;;11.58;100.00
49877;BME280;35771;48.978;9.294;2022-11-15T11:26:39;98409.84;;;11.70;100.00
49877;BME280;35771;48.978;9.294;2022-11-15T11:29:19;98404.19;;;11.72;100.00
49877;BME280;35771;48.978;9.294;2022-11-15T11:31:55;98413.81;;;11.81;100.00
49877;BME280;35771;48.978;9.294;2022-11-15T11:34:37;98419.25;;;11.81;100.00
49877;BME280;35771;48.978;9.294;2022-11-15T11:37:13;98399.16;;;11.75;100.00
49877;BME280;35771;48.978;9.294;2022-11-15T11:39:50;98397.28;;;11.76;100.00
49877;BME280;35771;48.978;9.294;2022-11-15T11:42:26;98392.41;;;11.84;100.00
49877;BME280;35771;48.978;9.294;2022-11-15T11:45:03;98402.72;;;11.96;100.00
49877;BME280;35771;48.978;9.294;2022-11-15T11:47:43;98385.34;;;11.97;100.00
49877;BME280;35771;48.978;9.294;2022-11-15T11:50:15;98381.94;;;12.08;100.00
49877;BME280;35771;48.978;9.294;2022-11-15T11:52:52;98368.94;;;12.10;100.00
49877;BME280;35771;48.978;9.294;2022-11-15T11:55:24;98376.19;;;12.36;100.00
49877;BME280;35771;48.978;9.294;2022-11-15T11:58:00;98369.88;;;12.36;100.00
49877;BME280;35771;48.978;9.294;2022-11-15T12:00:32;98356.25;;;12.36;100.00
49877;BME280;35771;48.978;9.294;2022-11-15T12:03:07;98368.34;;;12.60;100.00
49877;BME280;35771;48.978;9.294;2022-11-15T12:05:39;98358.19;;;12.67;100.00
49877;BME280;35771;48.978;9.294;2022-11-15T12:08:20;98336.97;;;12.76;100.00
49877;BME280;35771;48.978;9.294;2022-11-15T12:10:54;98346.63;;;12.79;100.00
49877;BME280;35771;48.978;9.294;2022-11-15T12:13:25;98351.84;;;12.80;100.00
49877;BME280;35771;48.978;9.294;2022-11-15T12:15:57;98336.94;;;12.83;100.00
49877;BME280;35771;48.978;9.294;2022-11-15T12:18:28;98334.59;;;12.86;99.65
49877;BME280;35771;48.978;9.294;2022-11-15T12:20:57;98339.53;;;13.03;100.00
49877;BME280;35771;48.978;9.294;2022-11-15T12:23:28;98320.47;;;12.96;98.57
49877;BME280;35771;48.978;9.294;2022-11-15T12:26:00;98336.13;;;13.07;98.20
49877;BME280;35771;48.978;9.294;2022-11-15T12:28:35;98322.94;;;13.04;97.90
49877;BME280;35771;48.978;9.294;2022-11-15T12:31:11;98314.69;;;13.11;95.85
49877;BME280;35771;48.978;9.294;2022-11-15T12:33:42;98322.09;;;13.29;97.85
49877;BME280;35771;48.978;9.294;2022-11-15T12:36:11;98310.00;;;13.18;97.25
49877;BME280;35771;48.978;9.294;2022-11-15T12:38:56;98305.22;;;13.14;93.69
49877;BME280;35771;48.978;9.294;2022-11-15T12:41:25;98323.22;;;13.21;94.04
49877;BME280;35771;48.978;9.294;2022-11-15T12:43:52;98322.38;;;13.21;92.33
49877;BME280;35771;48.978;9.294;2022-11-15T12:49:09;98312.97;;;13.17;95.26
49877;BME280;35771;48.978;9.294;2022-11-15T12:52:04;98318.19;;;13.18;96.64
49877;BME280;35771;48.978;9.294;2022-11-15T12:55:00;98322.19;;;13.16;98.82
49877;BME280;35771;48.978;9.294;2022-11-15T12:57:41;98310.84;;;12.93;97.68
49877;BME280;35771;48.978;9.294;2022-11-15T13:00:36;98312.91;;;12.98;96.55
49877;BME280;35771;48.978;9.294;2022-11-15T13:03:30;98312.03;;;13.04;96.10
49877;BME280;35771;48.978;9.294;2022-11-15T13:06:09;98296.34;;;12.93;96.48
49877;BME280;35771;48.978;9.294;2022-11-15T13:08:56;98300.31;;;12.97;99.74
49877;BME280;35771;48.978;9.294;2022-11-15T13:11:44;98302.59;;;13.00;99.85
49877;BME280;35771;48.978;9.294;2022-11-15T13:14:46;98305.06;;;13.08;98.97
49877;BME280;35771;48.978;9.294;2022-11-15T13:17:26;98288.25;;;13.12;98.16
49877;BME280;35771;48.978;9.294;2022-11-15T13:19:58;98292.69;;;13.06;97.59
49877;BME280;35771;48.978;9.294;2022-11-15T13:22:28;98287.53;;;12.98;97.82
49877;BME280;35771;48.978;9.294;2022-11-15T13:25:37;98259.06;;;12.87;96.40
49877;BME280;35771;48.978;9.294;2022-11-15T13:28:11;98283.34;;;12.95;97.25
49877;BME280;35771;48.978;9.294;2022-11-15T13:30:49;98265.53;;;12.92;98.16
49877;BME280;35771;48.978;9.294;2022-11-15T13:33:18;98258.81;;;12.88;97.86
49877;BME280;35771;48.978;9.294;2022-11-15T13:35:47;98253.66;;;12.80;99.57
49877;BME280;35771;48.978;9.294;2022-11-15T13:38:18;98261.53;;;12.95;100.00
49877;BME280;35771;48.978;9.294;2022-11-15T13:40:46;98245.63;;;12.85;99.28
49877;BME280;35771;48.978;9.294;2022-11-15T13:43:19;98252.47;;;12.95;100.00
49877;BME280;35771;48.978;9.294;2022-11-15T13:46:07;98250.16;;;12.98;99.11
49877;BME280;35771;48.978;9.294;2022-11-15T13:48:36;98228.66;;;12.83;97.02
49877;BME280;35771;48.978;9.294;2022-11-15T13:51:05;98234.94;;;12.84;98.60
49877;BME280;35771;48.978;9.294;2022-11-15T13:53:36;98220.34;;;12.78;100.00
49877;BME280;35771;48.978;9.294;2022-11-15T13:56:03;98245.25;;;12.82;98.93
49877;BME280;35771;48.978;9.294;2022-11-15T13:58:30;98239.81;;;12.82;99.50
49877;BME280;35771;48.978;9.294;2022-11-15T14:01:00;98229.56;;;12.77;100.00
49877;BME280;35771;48.978;9.294;2022-11-15T14:03:29;98222.50;;;12.69;100.00
49877;BME280;35771;48.978;9.294;2022-11-15T14:06:05;98215.59;;;12.67;100.00
49877;BME280;35771;48.978;9.294;2022-11-15T14:08:34;98202.41;;;12.64;100.00
49877;BME280;35771;48.978;9.294;2022-11-15T14:11:09;98205.69;;;12.72;100.00
49877;BME280;35771;48.978;9.294;2022-11-15T14:13:39;98220.50;;;12.83;100.00
49877;BME280;35771;48.978;9.294;2022-11-15T14:16:16;98211.69;;;12.81;100.00
49877;BME280;35771;48.978;9.294;2022-11-15T14:18:46;98223.81;;;12.85;100.00
49877;BME280;35771;48.978;9.294;2022-11-15T14:21:13;98192.88;;;12.73;100.00
49877;BME280;35771;48.978;9.294;2022-11-15T14:23:41;98198.41;;;12.66;100.00
49877;BME280;35771;48.978;9.294;2022-11-15T14:26:26;98178.69;;;12.64;100.00
49877;BME280;35771;48.978;9.294;2022-11-15T14:28:53;98175.78;;;12.59;100.00
49877;BME280;35771;48.978;9.294;2022-11-15T14:31:20;98186.03;;;12.64;100.00
49877;BME280;35771;48.978;9.294;2022-11-15T14:33:47;98191.19;;;12.72;100.00
49877;BME280;35771;48.978;9.294;2022-11-15T14:36:16;98170.00;;;12.49;100.00
49877;BME280;35771;48.978;9.294;2022-11-15T14:38:45;98170.88;;;12.43;100.00
49877;BME280;35771;48.978;9.294;2022-11-15T14:41:20;98188.19;;;12.55;100.00
49877;BME280;35771;48.978;9.294;2022-11-15T14:43:47;98179.66;;;12.45;100.00
49877;BME280;35771;48.978;9.294;2022-11-15T14:46:14;98177.78;;;12.45;100.00
49877;BME280;35771;48.978;9.294;2022-11-15T14:48:41;98180.56;;;12.38;100.00
49877;BME280;35771;48.978;9.294;2022-11-15T14:51:12;98144.00;;;12.21;100.00
49877;BME280;35771;48.978;9.294;2022-11-15T14:53:39;98167.69;;;12.20;100.00
49877;BME280;35771;48.978;9.294;2022-11-15T14:56:08;98173.19;;;12.14;100.00
49877;BME280;35771;48.978;9.294;2022-11-15T14:58:34;98165.44;;;12.11;100.00
49877;BME280;35771;48.978;9.294;2022-11-15T15:01:02;98147.03;;;12.06;100.00
49877;BME280;35771;48.978;9.294;2022-11-15T15:03:30;98137.78;;;12.07;100.00
49877;BME280;35771;48.978;9.294;2022-11-15T15:05:56;98150.50;;;12.20;100.00
49877;BME280;35771;48.978;9.294;2022-11-15T15:08:23;98130.06;;;12.04;100.00
49877;BME280;35771;48.978;9.294;2022-11-15T15:10:49;98145.75;;;12.09;100.00
49877;BME280;35771;48.978;9.294;2022-11-15T15:13:19;98111.28;;;11.89;100.00
49877;BME280;35771;48.978;9.294;2022-11-15T15:15:46;98146.81;;;12.08;100.00
49877;BME280;35771;48.978;9.294;2022-11-15T15:18:13;98134.47;;;12.05;100.00
49877;BME280;35771;48.978;9.294;2022-11-15T15:20:42;98127.16;;;11.92;100.00
49877;BME280;35771;48.978;9.294;2022-11-15T15:23:13;98122.81;;;11.84;100.00
49877;BME280;35771;48.978;9.294;2022-11-15T15:25:40;98128.72;;;11.81;100.00
49877;BME280;35771;48.978;9.294;2022-11-15T15:28:07;98115.16;;;11.68;100.00
49877;BME280;35771;48.978;9.294;2022-11-15T15:30:35;98083.19;;;11.57;100.00
49877;BME280;35771;48.978;9.294;2022-11-15T15:33:02;98084.22;;;11.62;100.00
49877;BME280;35771;48.978;9.294;2022-11-15T15:35:30;98098.91;;;11.55;100.00
49877;BME280;35771;48.978;9.294;2022-11-15T15:37:58;98082.25;;;11.38;100.00
49877;BME280;35771;48.978;9.294;2022-11-15T15:40:27;98089.38;;;11.32;100.00
49877;BME280;35771;48.978;9.294;2022-11-15T15:42:54;98095.03;;;11.37;100.00
49877;BME280;35771;48.978;9.294;2022-11-15T15:45:20;98077.88;;;11.30;100.00
49877;BME280;35771;48.978;9.294;2022-11-15T15:47:48;98088.09;;;11.41;100.00
49877;BME280;35771;48.978;9.294;2022-11-15T15:50:21;98055.31;;;11.23;100.00
49877;BME280;35771;48.978;9.294;2022-11-15T15:52:48;98073.97;;;11.19;100.00
49877;BME280;35771;48.978;9.294;2022-11-15T15:55:15;98078.16;;;11.22;100.00
49877;BME280;35771;48.978;9.294;2022-11-15T15:57:42;98050.78;;;11.10;100.00
49877;BME280;35771;48.978;9.294;2022-11-15T16:00:10;98066.19;;;11.23;100.00
49877;BME280;35771;48.978;9.294;2022-11-15T16:02:36;98073.09;;;11.25;100.00
49877;BME280;35771;48.978;9.294;2022-11-15T16:05:05;98045.78;;;11.07;100.00
49877;BME280;35771;48.978;9.294;2022-11-15T16:07:32;98051.44;;;11.05;100.00
49877;BME280;35771;48.978;9.294;2022-11-15T16:09:58;98074.78;;;11.20;100.00
49877;BME280;35771;48.978;9.294;2022-11-15T16:12:28;98040.56;;;10.98;100.00
49877;BME280;35771;48.978;9.294;2022-11-15T16:14:55;98045.78;;;11.07;100.00
49877;BME280;35771;48.978;9.294;2022-11-15T16:17:24;98037.38;;;11.08;100.00
49877;BME280;35771;48.978;9.294;2022-11-15T16:19:51;98059.97;;;11.15;100.00
49877;BME280;35771;48.978;9.294;2022-11-15T16:22:19;98055.16;;;11.11;100.00
49877;BME280;35771;48.978;9.294;2022-11-15T16:24:46;98021.72;;;10.97;100.00
49877;BME280;35771;48.978;9.294;2022-11-15T16:27:14;98025.31;;;10.91;100.00
49877;BME280;35771;48.978;9.294;2022-11-15T16:29:40;98037.63;;;11.00;100.00
49877;BME280;35771;48.978;9.294;2022-11-15T16:32:07;98039.34;;;10.94;100.00
49877;BME280;35771;48.978;9.294;2022-11-15T16:34:34;98051.66;;;10.97;100.00
49877;BME280;35771;48.978;9.294;2022-11-15T16:37:00;98035.16;;;10.92;100.00
49877;BME280;35771;48.978;9.294;2022-11-15T16:39:28;98028.25;;;10.89;100.00
49877;BME280;35771;48.978;9.294;2022-11-15T16:41:55;98020.75;;;10.85;100.00
49877;BME280;35771;48.978;9.294;2022-11-15T16:44:22;98017.38;;;10.89;100.00
49877;BME280;35771;48.978;9.294;2022-11-15T16:46:49;98030.31;;;10.94;100.00
49877;BME280;35771;48.978;9.294;2022-11-15T16:49:17;98004.84;;;10.82;100.00
49877;BME280;35771;48.978;9.294;2022-11-15T16:51:49;98006.75;;;10.81;100.00
49877;BME280;35771;48.978;9.294;2022-11-15T16:54:16;98015.91;;;10.93;100.00
49877;BME280;35771;48.978;9.294;2022-11-15T16:56:44;98000.44;;;10.87;100.00
49877;BME280;35771;48.978;9.294;2022-11-15T16:59:15;97996.00;;;10.93;100.00
49877;BME280;35771;48.978;9.294;2022-11-15T17:01:42;97995.00;;;10.87;100.00
49877;BME280;35771;48.978;9.294;2022-11-15T17:04:18;97991.44;;;10.87;100.00
49877;BME280;35771;48.978;9.294;2022-11-15T17:06:47;97993.16;;;10.81;100.00
49877;BME280;35771;48.978;9.294;2022-11-15T17:09:16;97999.81;;;10.85;100.00
49877;BME280;35771;48.978;9.294;2022-11-15T17:11:45;98003.19;;;10.87;100.00
49877;BME280;35771;48.978;9.294;2022-11-15T17:14:12;97998.59;;;10.81;100.00
49877;BME280;35771;48.978;9.294;2022-11-15T17:16:38;97983.09;;;10.82;100.00
49877;BME280;35771;48.978;9.294;2022-11-15T17:19:13;97990.44;;;10.81;100.00
49877;BME280;35771;48.978;9.294;2022-11-15T17:21:40;97992.69;;;10.91;100.00
49877;BME280;35771;48.978;9.294;2022-11-15T17:24:08;97970.16;;;10.77;100.00
49877;BME280;35771;48.978;9.294;2022-11-15T17:26:35;97972.25;;;10.82;100.00
49877;BME280;35771;48.978;9.294;2022-11-15T17:29:03;97968.25;;;10.84;100.00
49877;BME280;35771;48.978;9.294;2022-11-15T17:31:32;97965.13;;;10.80;100.00
49877;BME280;35771;48.978;9.294;2022-11-15T17:33:59;97972.41;;;10.93;100.00
49877;BME280;35771;48.978;9.294;2022-11-15T17:36:26;97952.16;;;10.83;100.00
49877;BME280;35771;48.978;9.294;2022-11-15T17:38:52;97948.22;;;10.72;100.00
49877;BME280;35771;48.978;9.294;2022-11-15T17:41:19;97957.56;;;10.89;100.00
49877;BME280;35771;48.978;9.294;2022-11-15T17:43:46;97947.34;;;10.85;99.76
49877;BME280;35771;48.978;9.294;2022-11-15T17:46:16;97955.06;;;10.88;100.00
49877;BME280;35771;48.978;9.294;2022-11-15T17:48:43;97967.41;;;10.90;100.00
49877;BME280;35771;48.978;9.294;2022-11-15T17:51:11;97962.19;;;10.82;100.00
49877;BME280;35771;48.978;9.294;2022-11-15T17:53:41;97978.91;;;10.86;100.00
49877;BME280;35771;48.978;9.294;2022-11-15T17:56:09;97971.00;;;10.77;100.00
49877;BME280;35771;48.978;9.294;2022-11-15T17:58:36;97942.81;;;10.65;100.00
49877;BME280;35771;48.978;9.294;2022-11-15T18:01:16;97961.19;;;10.70;100.00
49877;BME280;35771;48.978;9.294;2022-11-15T18:03:43;97954.09;;;10.69;100.00
49877;BME280;35771;48.978;9.294;2022-11-15T18:06:10;97959.31;;;10.70;100.00
49877;BME280;35771;48.978;9.294;2022-11-15T18:08:38;97961.78;;;10.78;100.00
49877;BME280;35771;48.978;9.294;2022-11-15T18:11:06;97971.84;;;10.78;100.00
49877;BME280;35771;48.978;9.294;2022-11-15T18:13:34;97956.22;;;10.60;100.00
49877;BME280;35771;48.978;9.294;2022-11-15T18:16:01;97960.81;;;10.66;100.00
49877;BME280;35771;48.978;9.294;2022-11-15T18:18:32;97959.94;;;10.66;100.00
49877;BME280;35771;48.978;9.294;2022-11-15T18:21:01;97952.22;;;10.62;100.00
49877;BME280;35771;48.978;9.294;2022-11-15T18:23:28;97938.47;;;10.51;100.00
49877;BME280;35771;48.978;9.294;2022-11-15T18:25:55;97937.91;;;10.42;100.00
49877;BME280;35771;48.978;9.294;2022-11-15T18:28:22;97956.25;;;10.53;100.00
49877;BME280;35771;48.978;9.294;2022-11-15T18:30:48;97951.22;;;10.57;100.00
49877;BME280;35771;48.978;9.294;2022-11-15T18:33:15;97933.69;;;10.46;100.00
49877;BME280;35771;48.978;9.294;2022-11-15T18:35:42;97935.41;;;10.40;100.00
49877;BME280;35771;48.978;9.294;2022-11-15T18:38:09;97951.44;;;10.49;100.00
49877;BME280;35771;48.978;9.294;2022-11-15T18:40:35;97948.56;;;10.43;100.00
49877;BME280;35771;48.978;9.294;2022-11-15T18:43:02;97926.59;;;10.32;100.00
49877;BME280;35771;48.978;9.294;2022-11-15T18:45:29;97937.69;;;10.43;100.00
49877;BME280;35771;48.978;9.294;2022-11-15T18:47:56;97943.72;;;10.45;100.00
49877;BME280;35771;48.978;9.294;2022-11-15T18:50:22;97944.34;;;10.48;100.00
49877;BME280;35771;48.978;9.294;2022-11-15T18:52:50;97926.22;;;10.35;100.00
49877;BME280;35771;48.978;9.294;2022-11-15T18:55:17;97926.00;;;10.36;100.00
49877;BME280;35771;48.978;9.294;2022-11-15T18:57:43;97942.25;;;10.43;100.00
49877;BME280;35771;48.978;9.294;2022-11-15T19:00:11;97949.38;;;10.44;100.00
49877;BME280;35771;48.978;9.294;2022-11-15T19:02:38;97925.16;;;10.29;100.00
49877;BME280;35771;48.978;9.294;2022-11-15T19:05:05;97953.13;;;10.43;100.00
49877;BME280;35771;48.978;9.294;2022-11-15T19:07:32;97938.13;;;10.27;100.00
49877;BME280;35771;48.978;9.294;2022-11-15T19:10:00;97944.78;;;10.31;100.00
49877;BME280;35771;48.978;9.294;2022-11-15T19:12:27;97965.72;;;10.37;100.00
49877;BME280;35771;48.978;9.294;2022-11-15T19:14:53;97931.25;;;10.18;100.00
49877;BME280;35771;48.978;9.294;2022-11-15T19:17:20;97935.44;;;10.07;100.00
49877;BME280;35771;48.978;9.294;2022-11-15T19:19:46;97948.19;;;10.06;100.00
49877;BME280;35771;48.978;9.294;2022-11-15T19:22:13;97949.84;;;10.07;100.00
49877;BME280;35771;48.978;9.294;2022-11-15T19:24:39;97958.41;;;10.11;100.00
49877;BME280;35771;48.978;9.294;2022-11-15T19:27:07;97927.31;;;9.94;100.00
49877;BME280;35771;48.978;9.294;2022-11-15T19:29:34;97939.00;;;9.94;100.00
49877;BME280;35771;48.978;9.294;2022-11-15T19:32:00;97946.94;;;9.89;100.00
49877;BME280;35771;48.978;9.294;2022-11-15T19:34:28;97958.84;;;9.95;100.00
49877;BME280;35771;48.978;9.294;2022-11-15T19:36:54;97935.88;;;9.90;100.00
49877;BME280;35771;48.978;9.294;2022-11-15T19:39:21;97962.38;;;10.02;100.00
49877;BME280;35771;48.978;9.294;2022-11-15T19:41:47;97923.34;;;9.83;100.00
49877;BME280;35771;48.978;9.294;2022-11-15T19:44:15;97949.84;;;10.01;100.00
49877;BME280;35771;48.978;9.294;2022-11-15T19:46:43;97915.41;;;9.81;100.00
49877;BME280;35771;48.978;9.294;2022-11-15T19:49:09;97910.63;;;9.83;100.00
49877;BME280;35771;48.978;9.294;2022-11-15T19:51:36;97908.94;;;9.82;100.00
49877;BME280;35771;48.978;9.294;2022-11-15T19:54:03;97915.19;;;9.96;100.00
49877;BME280;35771;48.978;9.294;2022-11-15T19:56:33;97922.28;;;10.04;100.00
49877;BME280;35771;48.978;9.294;2022-11-15T19:59:01;97890.16;;;9.94;100.00
49877;BME280;35771;48.978;9.294;2022-11-15T20:01:31;97888.72;;;9.85;100.00
49877;BME280;35771;48.978;9.294;2022-11-15T20:04:00;97858.41;;;9.81;100.00
49877;BME280;35771;48.978;9.294;2022-11-15T20:06:28;97879.72;;;9.91;100.00
49877;BME280;35771;48.978;9.294;2022-11-15T20:08:55;97870.09;;;9.95;100.00
49877;BME280;35771;48.978;9.294;2022-11-15T20:11:22;97861.53;;;9.91;100.00
49877;BME280;35771;48.978;9.294;2022-11-15T20:13:49;97853.59;;;9.90;100.00
49877;BME280;35771;48.978;9.294;2022-11-15T20:16:17;97852.16;;;9.81;100.00
49877;BME280;35771;48.978;9.294;2022-11-15T20:18:45;97879.91;;;9.96;100.00
49877;BME280;35771;48.978;9.294;2022-11-15T20:21:12;97863.84;;;9.88;100.00
49877;BME280;35771;48.978;9.294;2022-11-15T20:23:39;97838.19;;;9.77;100.00
49877;BME280;35771;48.978;9.294;2022-11-15T20:26:07;97848.00;;;9.78;100.00
49877;BME280;35771;48.978;9.294;2022-11-15T20:28:35;97845.06;;;9.80;100.00
49877;BME280;35771;48.978;9.294;2022-11-15T20:31:02;97847.56;;;9.81;100.00
49877;BME280;35771;48.978;9.294;2022-11-15T20:33:29;97860.91;;;9.83;100.00
49877;BME280;35771;48.978;9.294;2022-11-15T20:36:02;97847.16;;;9.71;100.00
49877;BME280;35771;48.978;9.294;2022-11-15T20:38:29;97831.94;;;9.63;100.00
49877;BME280;35771;48.978;9.294;2022-11-15T20:40:55;97828.81;;;9.60;100.00